WetterOnline ( https://www.wetteronline.de )

Wetter aktuell Allgäuer Alpen (in 800m)

Aktuelles Wetter: Oberstdorf (812m)

6-stündlich | Neueste Meldungen
Ortszeit Temperatur Wetter
Do, 27.01. 13:00 2.8° C leicht bewölkt
Do, 27.01. 7:00 -6.7° C wolkig
Do, 27.01. 1:00 -6.8° C wolkig
Mi, 26.01. 19:00 -0.6° C wolkenlos
Mi, 26.01. 13:00 2.0° C wolkenlos
Mi, 26.01. 7:00 -6.6° C wolkenlos
Mi, 26.01. 1:00 -7.2° C Nebel
Di, 25.01. 19:00 -4.0° C wolkenlos
Ortszeit Temperatur Wetter
Do, 27.01. 14:30 2.7° C leicht bewölkt
Do, 27.01. 14:20 2.7° C leicht bewölkt
Do, 27.01. 14:10 4.3° C leicht bewölkt
Do, 27.01. 14:00 2.0° C leicht bewölkt
Do, 27.01. 13:50 2.0° C leicht bewölkt
Do, 27.01. 13:40 2.8° C wolkig
Do, 27.01. 13:30 1.8° C wolkig
Do, 27.01. 13:00 2.8° C leicht bewölkt
Do, 27.01. 12:30 0.8° C leicht bewölkt
Do, 27.01. 12:00 1.2° C leicht bewölkt
Do, 27.01. 11:30 -0.8° C bewölkt
Ortszeit Relative Feuchte Sichtweite
Do, 27.01. 13:00 53% 65 km
Do, 27.01. 7:00 75% >70 km
Do, 27.01. 1:00 82% >70 km
Mi, 26.01. 19:00 69% >70 km
Mi, 26.01. 13:00 64% >70 km
Mi, 26.01. 7:00 90% >70 km
Mi, 26.01. 1:00 94% 0.8 km
Di, 25.01. 19:00 93% >70 km
Ortszeit Relative Feuchte Sichtweite
Do, 27.01. 14:30 59% 65 km
Do, 27.01. 14:20 59% -
Do, 27.01. 14:10 55% -
Do, 27.01. 14:00 61% >70 km
Do, 27.01. 13:50 61% -
Do, 27.01. 13:40 56% -
Do, 27.01. 13:30 61% 65 km
Do, 27.01. 13:00 53% 65 km
Do, 27.01. 12:30 60% 65 km
Do, 27.01. 12:00 53% 45 km
Do, 27.01. 11:30 61% >70 km
Ortszeit Niederschlagsmenge Niederschlagsart
Do, 27.01. 13:00 0.0 l/m2 in 6 Std. -
Do, 27.01. 7:00 0.0 l/m2 in 12 Std. -
Do, 27.01. 1:00 0.0 l/m2 in 6 Std. -
Mi, 26.01. 19:00 0.0 l/m2 in 12 Std. -
Mi, 26.01. 13:00 0.0 l/m2 in 6 Std. -
Mi, 26.01. 7:00 0.0 l/m2 in 12 Std. -
Mi, 26.01. 1:00 0.0 l/m2 in 6 Std. -
Di, 25.01. 19:00 0.0 l/m2 in 12 Std. -
Ortszeit Niederschlagsmenge Niederschlagsart
Do, 27.01. 14:30 0.0 l/m2 in 1 Std. -
Do, 27.01. 14:20 keine Meldung -
Do, 27.01. 14:10 keine Meldung -
Do, 27.01. 14:00 0.0 l/m2 in 1 Std. -
Do, 27.01. 13:50 keine Meldung -
Do, 27.01. 13:40 keine Meldung -
Do, 27.01. 13:30 0.0 l/m2 in 1 Std. -
Do, 27.01. 13:00 0.0 l/m2 in 1 Std. -
Do, 27.01. 12:30 0.0 l/m2 in 1 Std. -
Do, 27.01. 12:00 0.0 l/m2 in 1 Std. -
Do, 27.01. 11:30 0.0 l/m2 in 1 Std. -
Ortszeit Stärke Spitze Richtung
km/h Bft. km/h Grad Sektor
Do, 27.01. 13:00 4 1 14 150° SO
Do, 27.01. 7:00 6 1 13 150° SO
Do, 27.01. 1:00 4 1 14 160° S
Mi, 26.01. 19:00 14 3 18 180° S
Mi, 26.01. 13:00 7 2 14 150° SO
Mi, 26.01. 7:00 4 1 11 160° S
Mi, 26.01. 1:00 6 1 11 190° S
Di, 25.01. 19:00 6 1 13 170° S
Ortszeit Stärke Spitze Richtung
km/h Bft. km/h Grad Sektor
Do, 27.01. 14:30 4 1 11 160° S
Do, 27.01. 14:20 4 1 - 160° S
Do, 27.01. 14:10 7 2 - 160° S
Do, 27.01. 14:00 4 1 7 160° S
Do, 27.01. 13:50 4 1 - 160° S
Do, 27.01. 13:40 4 1 - 180° S
Do, 27.01. 13:30 6 1 7 160° S
Do, 27.01. 13:00 4 1 7 150° SO
Do, 27.01. 12:30 4 1 7 160° S
Do, 27.01. 12:00 4 1 7 260° W
Do, 27.01. 11:30 4 1 7 270° W
Ortszeit Untergrenze Bedeckung Gattung
total tief tief mittel hoch
Do, 27.01. 13:00 8400 m 4/8 0/8 - - -
Do, 27.01. 7:00 7500 m 8/8 0/8 - - -
Do, 27.01. 1:00 7800 m 8/8 0/8 - - -
Mi, 26.01. 19:00 - 0/8 0/8 - - -
Mi, 26.01. 13:00 - 0/8 0/8 - - -
Mi, 26.01. 7:00 - 0/8 0/8 - - -
Mi, 26.01. 1:00 - 0/8 0/8 - - -
Di, 25.01. 19:00 - 0/8 0/8 - - -
Ortszeit Bedeckungsgrad in Achtel und Wolkenuntergrenze
Do, 27.01. 14:30 1(9000m) 3(10500m)
Do, 27.01. 14:20 1(9000m) 3(10500m)
Do, 27.01. 14:10 3
Do, 27.01. 14:00 1(9000m) 4(9000m) 6(10500m)
Do, 27.01. 13:50 1(9000m) 4(9000m) 6(10500m)
Do, 27.01. 13:40 6
Do, 27.01. 13:30 6(9000m) 7(10500m)
Do, 27.01. 13:00 3(8400m) 4(10500m)
Do, 27.01. 12:30 5(7800m) 5(9000m)
Do, 27.01. 12:00 2(7200m) 4(9000m)
Do, 27.01. 11:30 6(6600m) 7(9000m) 7(10500m)
Ortszeit Stationsdruck (hPa) Tendenz (hPa in 3 Std.)
Do, 27.01. 13:00 932 - 0,3
Do, 27.01. 7:00 934 - 0,1
Do, 27.01. 1:00 934 - 0,9
Mi, 26.01. 19:00 935 + 1,0
Mi, 26.01. 13:00 934 - 1,1
Mi, 26.01. 7:00 935 - 0,2
Mi, 26.01. 1:00 936 - 0,3
Di, 25.01. 19:00 936 + 0,5
Ortszeit Stationsdruck (hPa) Tendenz (hPa in 3 Std.)
Do, 27.01. 14:30 931 - 1,4
Do, 27.01. 14:20 931 keine Meldung
Do, 27.01. 14:10 931 keine Meldung
Do, 27.01. 14:00 932 - 0,8
Do, 27.01. 13:50 932 keine Meldung
Do, 27.01. 13:40 932 keine Meldung
Do, 27.01. 13:30 932 - 0,7
Do, 27.01. 13:00 932 - 0,3
Do, 27.01. 12:30 933 - 0,2
Do, 27.01. 12:00 933 + 0,1
Do, 27.01. 11:30 933 - 0,3
Ortszeit Schneehöhe (cm)
Do, 27.01. 13:00 17
Do, 27.01. 7:00 17
Do, 27.01. 1:00 17
Mi, 26.01. 19:00 17
Mi, 26.01. 13:00 17
Mi, 26.01. 7:00 17
Mi, 26.01. 1:00 17
Di, 25.01. 19:00 17
Ortszeit Schneehöhe (cm)
Do, 27.01. 14:30 17
Do, 27.01. 14:20 17
Do, 27.01. 14:10 17
Do, 27.01. 14:00 17
Do, 27.01. 13:50 17
Do, 27.01. 13:40 17
Do, 27.01. 13:30 17
Do, 27.01. 13:00 17
Do, 27.01. 12:30 17
Do, 27.01. 12:00 17
Do, 27.01. 11:30 17
Link zu dieser Seite / Seite empfehlen

Das Wetter in ...